Portada
METAR-TAF:

METAR-TAF

Aeropuertos :

Aeropuerto de Almería

Almería, España

latitud: 36-51N, longitud: 002-23W, altitud: 15 m

Observación

El informe se hizo hace 22 minutos, a las 05:00 UTC
Viento 1 kt con dirección variable
Temperatura 24°C
Humedad 94%
Presión 1012 hPa
Visibilidad 10 km o más
Escasas nubes a una altura de 800 ft

METAR: LEAM 300500Z VRB01KT 9999 FEW008 24/23 Q1012

Hora: 07:22 (05:22 UTC)

Pronóstico

El informe se hizo hace 6 horas y 22 minutos, a las 23:00 UTC
Pronóstico válido del 30 a las 00 UTC al 30 a las 24 UTC
Viento 3 kt del este
Visibilidad 10 km o más
Nubes dispersas a una altura de 1500 ft
Temporalmente
del 30 a las 00 UTC al 30 a las 09 UTC
Cielo nuboso a una altura de 1000 ft
Probabilidad 30% :
Temporalmente
del 30 a las 00 UTC al 30 a las 08 UTC
Visibilidad: 0500 m
niebla

TAF: LEAM 292300Z 3000/3024 09003KT 9999 SCT015 TX27/3017Z TN20/3004Z TEMPO 3000/3009 BKN010 PROB30 TEMPO 3000/3008 0500 FG

Observaciones y pronósticos meteorológicos de más de 4000 aeropuertos (mensajes METAR y TAF).

Los puntos amarillos y rojos representan las estaciones disponibles.

Ponga el ratón en el punto deseado para ver el nombre de la estación.

Haga clic para ver las observaciones y los pronósticos meteorológicos.

Para cambiar el mapa : haga clic en los botones verdes con una cruz de color negro para hacer un zoom, en el botón verde con un guión para alejar o en las flechas verdes para mapas adyacentes.


METAR-TAF: